createdAt,value
2022-09-15T00:00:35.243Z,89
2022-09-15T00:02:36.173Z,89
2022-09-15T00:04:35.391Z,89
2022-09-15T00:06:34.027Z,89
2022-09-15T00:08:32.769Z,89
2022-09-15T00:10:34.943Z,89
2022-09-15T00:12:35.005Z,89
2022-09-15T00:14:36.299Z,89
2022-09-15T00:16:36.110Z,89
2022-09-15T00:18:34.585Z,88
2022-09-15T00:20:33.195Z,88
2022-09-15T00:22:32.845Z,88
2022-09-15T00:24:34.388Z,88
2022-09-15T00:26:32.910Z,89
2022-09-15T00:28:36.041Z,88
2022-09-15T00:30:35.940Z,88
2022-09-15T00:32:34.577Z,88
2022-09-15T00:34:35.808Z,88
2022-09-15T00:36:35.223Z,88
2022-09-15T00:38:32.484Z,88
2022-09-15T00:40:33.310Z,88
2022-09-15T00:42:30.083Z,88
2022-09-15T00:44:34.641Z,88
2022-09-15T00:46:36.013Z,88
2022-09-15T00:48:35.499Z,88
2022-09-15T00:50:30.799Z,88
2022-09-15T00:52:34.599Z,88
2022-09-15T00:54:34.998Z,88
2022-09-15T00:56:32.893Z,88
2022-09-15T00:58:34.657Z,88
2022-09-15T01:00:34.616Z,88
2022-09-15T01:02:32.826Z,88
2022-09-15T01:04:36.007Z,88
2022-09-15T01:06:34.120Z,88
2022-09-15T01:08:33.663Z,88
2022-09-15T01:10:33.672Z,88
2022-09-15T01:12:33.863Z,88
2022-09-15T01:14:35.577Z,87
2022-09-15T01:16:30.150Z,87
2022-09-15T01:20:34.895Z,87
2022-09-15T01:22:32.947Z,87
2022-09-15T01:24:31.059Z,87
2022-09-15T01:26:35.180Z,87
2022-09-15T01:28:32.942Z,87
2022-09-15T01:30:32.917Z,87
2022-09-15T01:32:34.910Z,87
2022-09-15T01:34:36.458Z,87
2022-09-15T01:36:34.593Z,87
2022-09-15T01:38:35.062Z,87
2022-09-15T01:40:35.005Z,87
2022-09-15T01:42:36.049Z,87
2022-09-15T01:44:32.931Z,86
2022-09-15T01:46:35.916Z,87
2022-09-15T01:48:35.888Z,87
2022-09-15T01:50:35.038Z,86
2022-09-15T01:52:35.842Z,86
2022-09-15T01:54:34.878Z,87
2022-09-15T01:56:34.971Z,87
2022-09-15T01:58:33.820Z,87
2022-09-15T02:00:32.939Z,87
2022-09-15T02:02:33.248Z,87
2022-09-15T02:04:33.797Z,86
2022-09-15T02:06:34.541Z,87
2022-09-15T02:08:32.663Z,87
2022-09-15T02:10:35.466Z,86
2022-09-15T02:12:35.128Z,87
2022-09-15T02:14:35.804Z,86
2022-09-15T02:16:33.238Z,86
2022-09-15T02:18:34.804Z,86
2022-09-15T02:20:32.932Z,86
2022-09-15T02:22:33.749Z,86
2022-09-15T02:24:32.797Z,86
2022-09-15T02:26:34.184Z,86
2022-09-15T02:28:31.374Z,86
2022-09-15T02:30:33.197Z,86
2022-09-15T02:32:35.832Z,86
2022-09-15T02:34:32.925Z,86
2022-09-15T02:36:35.823Z,86
2022-09-15T02:38:33.982Z,86
2022-09-15T02:40:32.986Z,86
2022-09-15T02:42:39.023Z,86
2022-09-15T02:44:33.099Z,86
2022-09-15T02:46:33.235Z,86
2022-09-15T02:48:35.882Z,86
2022-09-15T02:50:35.813Z,86
2022-09-15T02:52:35.854Z,86
2022-09-15T02:54:33.745Z,86
2022-09-15T02:56:35.337Z,86
2022-09-15T02:58:32.957Z,86
2022-09-15T03:00:35.122Z,86
2022-09-15T03:02:32.906Z,86
2022-09-15T03:04:32.875Z,86
2022-09-15T03:06:35.255Z,86
2022-09-15T03:08:36.051Z,86
2022-09-15T03:10:34.550Z,86
2022-09-15T03:12:34.630Z,86
2022-09-15T03:14:33.343Z,86
2022-09-15T03:16:33.069Z,86
2022-09-15T03:18:31.787Z,86
2022-09-15T03:20:35.191Z,86
2022-09-15T03:22:33.917Z,85
2022-09-15T03:24:33.079Z,86
2022-09-15T03:26:32.962Z,86
2022-09-15T03:28:32.922Z,85
2022-09-15T03:30:32.912Z,86
2022-09-15T03:32:32.900Z,85
2022-09-15T03:34:30.134Z,85
2022-09-15T03:36:37.691Z,85
2022-09-15T03:38:30.981Z,85
2022-09-15T03:40:33.079Z,85
2022-09-15T03:42:33.190Z,85
2022-09-15T03:44:32.944Z,85
2022-09-15T03:46:33.251Z,85
2022-09-15T03:48:32.959Z,85
2022-09-15T03:50:30.073Z,85
2022-09-15T03:54:36.098Z,85
2022-09-15T03:56:36.282Z,86
2022-09-15T03:58:36.501Z,85
2022-09-15T04:00:35.518Z,86
2022-09-15T04:02:36.059Z,86
2022-09-15T04:04:32.918Z,86
2022-09-15T04:06:33.329Z,86
2022-09-15T04:08:32.940Z,86
2022-09-15T04:10:33.008Z,86
2022-09-15T04:12:36.085Z,86
2022-09-15T04:14:35.695Z,86
2022-09-15T04:16:35.880Z,86
2022-09-15T04:18:35.373Z,86
2022-09-15T04:20:35.395Z,86
2022-09-15T04:22:33.093Z,86
2022-09-15T04:24:35.002Z,86
2022-09-15T04:26:36.331Z,86
2022-09-15T04:28:34.985Z,86
2022-09-15T04:30:34.823Z,86
2022-09-15T04:32:32.927Z,86
2022-09-15T04:34:40.648Z,86
2022-09-15T04:36:32.980Z,86
2022-09-15T04:38:36.149Z,86
2022-09-15T04:40:36.138Z,86
2022-09-15T04:42:36.765Z,86
2022-09-15T04:44:33.030Z,86
2022-09-15T04:46:36.029Z,86
2022-09-15T04:48:34.985Z,87
2022-09-15T04:50:32.984Z,86
2022-09-15T04:52:32.957Z,86
2022-09-15T04:54:36.099Z,86
2022-09-15T04:58:33.012Z,86
2022-09-15T05:00:35.470Z,86
2022-09-15T05:02:33.045Z,86
2022-09-15T05:04:32.766Z,86
2022-09-15T05:06:34.618Z,86
2022-09-15T05:08:34.106Z,86
2022-09-15T05:10:33.062Z,86
2022-09-15T05:14:36.210Z,86
2022-09-15T05:16:33.053Z,85
2022-09-15T05:18:33.489Z,86
2022-09-15T05:20:35.360Z,85
2022-09-15T05:22:41.024Z,85
2022-09-15T05:24:36.512Z,85
2022-09-15T05:26:34.098Z,85
2022-09-15T05:28:33.281Z,85
2022-09-15T05:30:37.995Z,85
2022-09-15T05:32:35.761Z,85
2022-09-15T05:34:37.083Z,85
2022-09-15T05:36:35.710Z,85
2022-09-15T05:38:34.378Z,85
2022-09-15T05:40:36.379Z,85
2022-09-15T05:42:31.301Z,85
2022-09-15T05:44:36.784Z,85
2022-09-15T05:46:37.114Z,85
2022-09-15T05:48:33.037Z,85
2022-09-15T05:50:34.535Z,85
2022-09-15T05:52:33.039Z,85
2022-09-15T05:56:36.113Z,85
2022-09-15T05:58:32.936Z,84
2022-09-15T06:02:35.754Z,84
2022-09-15T06:04:34.718Z,84
2022-09-15T06:06:34.459Z,84
2022-09-15T06:08:35.191Z,84
2022-09-15T06:10:32.778Z,84
2022-09-15T06:12:35.826Z,84
2022-09-15T06:14:30.995Z,84
2022-09-15T06:16:35.458Z,84
2022-09-15T06:18:36.081Z,84
2022-09-15T06:20:33.817Z,84
2022-09-15T06:22:36.168Z,84
2022-09-15T06:24:33.269Z,84
2022-09-15T06:26:35.961Z,84
2022-09-15T06:28:34.447Z,84
2022-09-15T06:30:33.017Z,84
2022-09-15T06:32:35.782Z,84
2022-09-15T06:34:35.827Z,84
2022-09-15T06:36:33.010Z,84
2022-09-15T06:38:32.967Z,84
2022-09-15T06:40:35.434Z,83
2022-09-15T06:42:32.915Z,84
2022-09-15T06:44:32.907Z,84
2022-09-15T06:46:35.849Z,83
2022-09-15T06:48:34.577Z,83
2022-09-15T06:50:33.747Z,83
2022-09-15T06:52:32.950Z,83
2022-09-15T06:54:36.254Z,83
2022-09-15T06:56:37.178Z,83
2022-09-15T06:58:36.209Z,83
2022-09-15T07:00:35.734Z,83
2022-09-15T07:02:35.123Z,84
2022-09-15T07:04:39.505Z,84
2022-09-15T07:06:33.119Z,84
2022-09-15T07:08:33.740Z,83
2022-09-15T07:10:31.369Z,83
2022-09-15T07:12:32.967Z,83
2022-09-15T07:14:36.197Z,83
2022-09-15T07:16:32.892Z,83
2022-09-15T07:18:41.044Z,83
2022-09-15T07:20:35.459Z,83
2022-09-15T07:22:33.217Z,83
2022-09-15T07:24:30.195Z,83
2022-09-15T07:26:34.132Z,82
2022-09-15T07:28:34.634Z,82
2022-09-15T07:30:35.229Z,83
2022-09-15T07:34:32.980Z,83
2022-09-15T07:36:32.966Z,83
2022-09-15T07:38:35.405Z,82
2022-09-15T07:40:33.011Z,82
2022-09-15T07:42:36.017Z,83
2022-09-15T07:44:35.381Z,83
2022-09-15T07:46:33.077Z,82
2022-09-15T07:48:34.000Z,82
2022-09-15T07:50:32.787Z,83
2022-09-15T07:52:32.689Z,83
2022-09-15T07:54:33.071Z,83
2022-09-15T07:56:32.048Z,82
2022-09-15T07:58:36.268Z,83
2022-09-15T08:00:35.867Z,83
2022-09-15T08:02:35.790Z,83
2022-09-15T08:04:36.882Z,83
2022-09-15T08:06:33.027Z,83
2022-09-15T08:08:36.106Z,83
2022-09-15T08:10:34.974Z,83
2022-09-15T08:12:36.708Z,83
2022-09-15T08:14:36.641Z,83
2022-09-15T08:16:33.377Z,83
2022-09-15T08:18:33.001Z,83
2022-09-15T08:20:35.634Z,83
2022-09-15T08:22:31.049Z,82
2022-09-15T08:24:35.059Z,82
2022-09-15T08:26:33.114Z,82
2022-09-15T08:28:34.513Z,82
2022-09-15T08:30:31.431Z,82
2022-09-15T08:32:33.424Z,82
2022-09-15T08:34:33.291Z,82
2022-09-15T08:36:36.139Z,81
2022-09-15T08:38:35.154Z,82
2022-09-15T08:40:35.064Z,82
2022-09-15T08:42:36.287Z,82
2022-09-15T08:44:33.073Z,82
2022-09-15T08:46:33.385Z,82
2022-09-15T08:48:34.334Z,82
2022-09-15T08:50:36.363Z,82
2022-09-15T08:52:33.248Z,82
2022-09-15T08:54:34.246Z,82
2022-09-15T08:56:33.047Z,82
2022-09-15T08:58:33.997Z,81
2022-09-15T09:00:34.581Z,81
2022-09-15T09:02:36.151Z,81
2022-09-15T09:04:36.266Z,81
2022-09-15T09:06:36.109Z,81
2022-09-15T09:08:35.373Z,81
2022-09-15T09:10:32.403Z,80
2022-09-15T09:12:34.612Z,80
2022-09-15T09:14:36.464Z,80
2022-09-15T09:16:35.912Z,80
2022-09-15T09:18:34.254Z,80
2022-09-15T09:20:35.932Z,80
2022-09-15T09:22:35.554Z,80
2022-09-15T09:24:36.113Z,80
2022-09-15T09:26:39.228Z,79
2022-09-15T09:28:32.834Z,80
2022-09-15T09:30:39.231Z,80
2022-09-15T09:32:35.885Z,79
2022-09-15T09:34:34.965Z,79
2022-09-15T09:36:34.614Z,78
2022-09-15T09:38:33.290Z,78
2022-09-15T09:40:34.571Z,79
2022-09-15T09:42:36.424Z,79
2022-09-15T09:44:33.073Z,78
2022-09-15T09:46:33.091Z,79
2022-09-15T09:48:35.122Z,79
2022-09-15T09:50:36.357Z,79
2022-09-15T09:52:34.276Z,79
2022-09-15T09:54:35.490Z,78
2022-09-15T09:56:33.228Z,78
2022-09-15T09:58:31.566Z,79
2022-09-15T10:00:37.274Z,78
2022-09-15T10:02:35.917Z,78
2022-09-15T10:04:36.444Z,79
2022-09-15T10:06:35.591Z,78
2022-09-15T10:08:34.231Z,78
2022-09-15T10:10:33.187Z,78
2022-09-15T10:12:34.605Z,78
2022-09-15T10:14:35.681Z,78
2022-09-15T10:16:31.427Z,79
2022-09-15T10:18:35.779Z,79
2022-09-15T10:20:33.037Z,79
2022-09-15T10:22:35.201Z,79
2022-09-15T10:24:36.860Z,79
2022-09-15T10:26:31.032Z,78
2022-09-15T10:28:34.779Z,78
2022-09-15T10:30:36.029Z,79
2022-09-15T10:32:31.779Z,79
2022-09-15T10:34:35.961Z,80
2022-09-15T10:36:32.977Z,81
2022-09-15T10:38:34.251Z,82
2022-09-15T10:40:35.456Z,83
2022-09-15T10:42:33.068Z,83
2022-09-15T10:44:36.220Z,83
2022-09-15T10:46:35.460Z,82
2022-09-15T10:48:34.585Z,82
2022-09-15T10:50:35.922Z,82
2022-09-15T10:52:33.307Z,82
2022-09-15T10:54:35.992Z,83
2022-09-15T10:56:30.959Z,82
2022-09-15T10:58:32.859Z,82
2022-09-15T11:00:35.627Z,82
2022-09-15T11:02:36.459Z,82
2022-09-15T11:04:31.548Z,82
2022-09-15T11:06:32.730Z,82
2022-09-15T11:08:33.051Z,82
2022-09-15T11:10:35.634Z,83
2022-09-15T11:12:35.201Z,82
2022-09-15T11:14:33.091Z,82
2022-09-15T11:16:33.035Z,82
2022-09-15T11:18:34.161Z,82
2022-09-15T11:20:34.954Z,82
2022-09-15T11:22:34.887Z,82
2022-09-15T11:24:36.237Z,82
2022-09-15T11:26:36.491Z,82
2022-09-15T11:28:32.731Z,82
2022-09-15T11:30:33.503Z,82
2022-09-15T11:34:36.073Z,82
2022-09-15T11:36:32.993Z,82
2022-09-15T11:38:35.469Z,82
2022-09-15T11:40:35.205Z,82
2022-09-15T11:42:35.155Z,82
2022-09-15T11:44:33.067Z,82
2022-09-15T11:46:36.082Z,82
2022-09-15T11:48:32.967Z,83
2022-09-15T11:50:33.481Z,82
2022-09-15T11:52:33.037Z,82
2022-09-15T11:54:33.146Z,83
2022-09-15T11:56:33.054Z,82
2022-09-15T11:58:36.073Z,83
2022-09-15T12:00:34.810Z,83
2022-09-15T12:02:36.203Z,83
2022-09-15T12:04:33.162Z,83
2022-09-15T12:06:31.578Z,83
2022-09-15T12:08:36.345Z,82
2022-09-15T12:10:34.726Z,82
2022-09-15T12:12:34.756Z,83
2022-09-15T12:14:33.802Z,83
2022-09-15T12:16:32.826Z,82
2022-09-15T12:18:39.199Z,82
2022-09-15T12:20:36.153Z,82
2022-09-15T12:22:35.471Z,82
2022-09-15T12:24:33.066Z,82
2022-09-15T12:26:33.057Z,82
2022-09-15T12:28:33.093Z,82
2022-09-15T12:30:34.735Z,82
2022-09-15T12:32:35.924Z,82
2022-09-15T12:34:33.345Z,82
2022-09-15T12:36:39.259Z,81
2022-09-15T12:38:36.117Z,82
2022-09-15T12:40:33.102Z,82
2022-09-15T12:42:35.936Z,81
2022-09-15T12:44:33.403Z,81
2022-09-15T12:46:36.183Z,81
2022-09-15T12:48:32.965Z,81
2022-09-15T12:50:35.786Z,81
2022-09-15T12:52:36.857Z,80
2022-09-15T12:54:37.214Z,80
2022-09-15T12:56:36.239Z,81
2022-09-15T12:58:34.587Z,81
2022-09-15T13:00:34.662Z,81
2022-09-15T13:02:36.553Z,81
2022-09-15T13:04:39.597Z,81
2022-09-15T13:06:33.014Z,81
2022-09-15T13:08:34.223Z,81
2022-09-15T13:10:36.892Z,81
2022-09-15T13:12:33.084Z,80
2022-09-15T13:14:36.957Z,79
2022-09-15T13:16:33.010Z,80
2022-09-15T13:18:31.583Z,81
2022-09-15T13:20:36.206Z,87
2022-09-15T13:22:32.558Z,89
2022-09-15T13:24:33.034Z,88
2022-09-15T13:26:37.224Z,87
2022-09-15T13:28:34.359Z,88
2022-09-15T13:30:35.579Z,89
2022-09-15T13:32:33.262Z,89
2022-09-15T13:35:12.832Z,89
2022-09-15T13:38:37.032Z,89
2022-09-15T13:40:33.255Z,89
2022-09-15T13:42:33.854Z,89
2022-09-15T13:44:31.081Z,89
2022-09-15T13:46:35.712Z,89
2022-09-15T13:48:35.588Z,89
2022-09-15T13:50:31.559Z,89
2022-09-15T13:52:37.272Z,89
2022-09-15T13:54:36.456Z,89
2022-09-15T13:56:36.573Z,89
2022-09-15T13:59:02.813Z,89
2022-09-15T14:00:32.954Z,89
2022-09-15T14:02:33.913Z,90
2022-09-15T14:04:35.806Z,90
2022-09-15T14:06:36.465Z,89
2022-09-15T14:08:39.268Z,89
2022-09-15T14:10:32.915Z,89
2022-09-15T14:12:33.781Z,89
2022-09-15T14:14:35.689Z,88
2022-09-15T14:16:34.111Z,88
2022-09-15T14:18:32.978Z,87
2022-09-15T14:20:35.190Z,86
2022-09-15T14:22:34.950Z,86
2022-09-15T14:24:35.569Z,86
2022-09-15T14:26:36.885Z,87
2022-09-15T14:28:33.352Z,87
2022-09-15T14:32:34.572Z,87
2022-09-15T14:34:33.032Z,87
2022-09-15T14:36:35.652Z,87
2022-09-15T14:38:31.558Z,87
2022-09-15T14:40:37.282Z,87
2022-09-15T14:42:34.213Z,86
2022-09-15T14:46:32.820Z,86
2022-09-15T14:48:33.078Z,87
2022-09-15T14:50:33.526Z,86
2022-09-15T14:52:35.672Z,86
2022-09-15T14:54:33.739Z,86
2022-09-15T14:56:35.920Z,86
2022-09-15T14:58:34.219Z,86
2022-09-15T15:00:35.961Z,86
2022-09-15T15:02:36.194Z,87
2022-09-15T15:04:36.469Z,87
2022-09-15T15:06:35.156Z,87
2022-09-15T15:08:33.187Z,86
2022-09-15T15:10:35.963Z,86
2022-09-15T15:12:32.586Z,86
2022-09-15T15:14:34.842Z,86
2022-09-15T15:16:36.231Z,86
2022-09-15T15:18:32.963Z,87
2022-09-15T15:20:35.737Z,87
2022-09-15T15:22:35.965Z,86
2022-09-15T15:24:33.137Z,86
2022-09-15T15:26:31.678Z,86
2022-09-15T15:28:35.936Z,86
2022-09-15T15:30:33.045Z,86
2022-09-15T15:32:37.949Z,86
2022-09-15T15:34:33.058Z,86
2022-09-15T15:36:33.655Z,86
2022-09-15T15:38:33.166Z,87
2022-09-15T15:40:33.112Z,86
2022-09-15T15:42:33.121Z,87
2022-09-15T15:46:33.042Z,87
2022-09-15T15:48:36.810Z,87
2022-09-15T15:50:35.698Z,87
2022-09-15T15:52:33.026Z,86
2022-09-15T15:54:33.461Z,86
2022-09-15T15:56:32.673Z,86
2022-09-15T15:58:33.562Z,86
2022-09-15T16:00:33.084Z,86
2022-09-15T16:02:34.913Z,86
2022-09-15T16:04:39.529Z,86
2022-09-15T16:06:33.017Z,86
2022-09-15T16:08:33.233Z,86
2022-09-15T16:10:32.995Z,86
2022-09-15T16:12:33.313Z,86
2022-09-15T16:14:31.170Z,86
2022-09-15T16:18:34.632Z,85
2022-09-15T16:20:33.689Z,85
2022-09-15T16:22:36.403Z,85
2022-09-15T16:24:31.068Z,85
2022-09-15T16:26:33.174Z,85
2022-09-15T16:28:34.567Z,85
2022-09-15T16:30:34.887Z,85
2022-09-15T16:32:30.516Z,85
2022-09-15T16:34:33.073Z,85
2022-09-15T16:36:32.991Z,84
2022-09-15T16:38:33.193Z,84
2022-09-15T16:40:33.566Z,84
2022-09-15T16:42:31.119Z,85
2022-09-15T16:44:36.091Z,86
2022-09-15T16:46:35.817Z,86
2022-09-15T16:48:33.146Z,86
2022-09-15T16:50:36.590Z,86
2022-09-15T16:52:33.082Z,87
2022-09-15T16:54:33.021Z,87
2022-09-15T16:56:33.206Z,87
2022-09-15T16:58:33.018Z,87
2022-09-15T17:00:35.202Z,87
2022-09-15T17:02:33.559Z,86
2022-09-15T17:04:33.119Z,86
2022-09-15T17:06:32.750Z,86
2022-09-15T17:08:33.164Z,86
2022-09-15T17:10:37.100Z,86
2022-09-15T17:12:32.871Z,87
2022-09-15T17:14:36.334Z,87
2022-09-15T17:16:36.625Z,87
2022-09-15T17:18:31.500Z,87
2022-09-15T17:20:35.875Z,87
2022-09-15T17:22:34.643Z,87
2022-09-15T17:24:33.050Z,87
2022-09-15T17:28:31.182Z,88
2022-09-15T17:30:34.710Z,88
2022-09-15T17:32:35.047Z,88
2022-09-15T17:34:31.156Z,88
2022-09-15T17:36:36.138Z,88
2022-09-15T17:38:33.164Z,89
2022-09-15T17:40:32.411Z,89
2022-09-15T17:42:36.193Z,89
2022-09-15T17:44:36.977Z,89
2022-09-15T17:46:32.995Z,89
2022-09-15T17:48:30.207Z,89
2022-09-15T17:50:33.308Z,89
2022-09-15T17:52:34.063Z,89
2022-09-15T17:54:33.984Z,89
2022-09-15T17:56:34.764Z,89
2022-09-15T17:58:33.225Z,89
2022-09-15T18:00:33.022Z,89
2022-09-15T18:02:37.401Z,89
2022-09-15T18:04:35.557Z,89
2022-09-15T18:06:35.430Z,89
2022-09-15T18:08:36.366Z,89
2022-09-15T18:10:32.839Z,89
2022-09-15T18:12:33.069Z,89
2022-09-15T18:14:33.224Z,89
2022-09-15T18:16:31.112Z,89
2022-09-15T18:18:33.073Z,89
2022-09-15T18:20:33.164Z,89
2022-09-15T18:22:31.581Z,89
2022-09-15T18:24:35.937Z,89
2022-09-15T18:28:33.054Z,89
2022-09-15T18:30:33.048Z,89
2022-09-15T18:32:32.982Z,89
2022-09-15T18:34:33.222Z,89
2022-09-15T18:36:31.067Z,89
2022-09-15T18:38:32.828Z,89
2022-09-15T18:40:33.128Z,89
2022-09-15T18:42:35.719Z,89
2022-09-15T18:44:34.164Z,89
2022-09-15T18:46:32.672Z,89
2022-09-15T18:48:33.095Z,89
2022-09-15T18:50:32.711Z,89
2022-09-15T18:52:32.816Z,89
2022-09-15T18:54:33.093Z,89
2022-09-15T18:56:33.319Z,89
2022-09-15T18:58:30.271Z,90
2022-09-15T19:00:31.458Z,89
2022-09-15T19:02:33.270Z,90
2022-09-15T19:04:39.959Z,90
2022-09-15T19:06:32.847Z,90
2022-09-15T19:08:35.638Z,90
2022-09-15T19:10:37.460Z,89
2022-09-15T19:12:30.223Z,89
2022-09-15T19:14:34.042Z,89
2022-09-15T19:16:47.073Z,89
2022-09-15T19:18:36.981Z,89
2022-09-15T19:20:33.151Z,89
2022-09-15T19:22:33.026Z,89
2022-09-15T19:24:33.020Z,89
2022-09-15T19:26:36.566Z,89
2022-09-15T19:28:30.251Z,89
2022-09-15T19:30:33.013Z,89
2022-09-15T19:32:32.753Z,89
2022-09-15T19:34:33.100Z,89
2022-09-15T19:36:32.776Z,89
2022-09-15T19:38:35.791Z,89
2022-09-15T19:40:33.029Z,89
2022-09-15T19:42:30.212Z,89
2022-09-15T19:44:32.765Z,89
2022-09-15T19:46:36.321Z,89
2022-09-15T19:48:39.855Z,89
2022-09-15T19:50:33.141Z,88
2022-09-15T19:52:34.191Z,89
2022-09-15T19:54:36.054Z,88
2022-09-15T19:56:33.136Z,88
2022-09-15T19:58:36.297Z,88
2022-09-15T20:00:32.145Z,88
2022-09-15T20:02:33.350Z,88
2022-09-15T20:04:41.203Z,89
2022-09-15T20:06:33.089Z,88
2022-09-15T20:08:33.324Z,88
2022-09-15T20:10:32.846Z,88
2022-09-15T20:14:32.627Z,88
2022-09-15T20:16:33.011Z,88
2022-09-15T20:18:33.216Z,89
2022-09-15T20:20:33.822Z,89
2022-09-15T20:22:36.277Z,88
2022-09-15T20:24:32.524Z,88
2022-09-15T20:26:37.158Z,88
2022-09-15T20:28:34.712Z,88
2022-09-15T20:30:33.167Z,88
2022-09-15T20:32:32.417Z,88
2022-09-15T20:34:33.302Z,88
2022-09-15T20:36:34.840Z,88
2022-09-15T20:38:33.204Z,88
2022-09-15T20:40:33.197Z,88
2022-09-15T20:42:30.313Z,88
2022-09-15T20:44:31.153Z,88
2022-09-15T20:46:32.420Z,88
2022-09-15T20:48:36.370Z,88
2022-09-15T20:50:32.989Z,88
2022-09-15T20:52:37.544Z,88
2022-09-15T20:54:33.020Z,88
2022-09-15T20:56:33.206Z,88
2022-09-15T20:58:37.865Z,88
2022-09-15T21:00:33.964Z,88
2022-09-15T21:02:33.222Z,88
2022-09-15T21:04:31.221Z,88
2022-09-15T21:06:36.255Z,88
2022-09-15T21:10:34.759Z,89
2022-09-15T21:12:33.100Z,89
2022-09-15T21:14:30.346Z,89
2022-09-15T21:16:33.402Z,89
2022-09-15T21:18:33.196Z,89
2022-09-15T21:20:35.213Z,89
2022-09-15T21:22:32.686Z,89
2022-09-15T21:24:31.267Z,89
2022-09-15T21:26:33.202Z,89
2022-09-15T21:28:32.620Z,89
2022-09-15T21:30:33.086Z,89
2022-09-15T21:32:32.925Z,89
2022-09-15T21:34:36.195Z,89
2022-09-15T21:36:33.057Z,89
2022-09-15T21:38:33.273Z,89
2022-09-15T21:40:31.873Z,90
2022-09-15T21:42:33.085Z,89
2022-09-15T21:44:33.310Z,89
2022-09-15T21:46:31.574Z,89
2022-09-15T21:48:36.295Z,89
2022-09-15T21:50:33.287Z,89
2022-09-15T21:52:33.135Z,89
2022-09-15T21:54:33.105Z,89
2022-09-15T21:56:36.822Z,89
2022-09-15T21:58:41.704Z,89
2022-09-15T22:00:37.126Z,89
2022-09-15T22:02:36.396Z,89
2022-09-15T22:04:33.087Z,89
2022-09-15T22:06:32.683Z,89
2022-09-15T22:08:33.271Z,89
2022-09-15T22:10:34.416Z,89
2022-09-15T22:12:31.092Z,89
2022-09-15T22:14:36.393Z,89
2022-09-15T22:16:32.418Z,89
2022-09-15T22:18:33.128Z,89
2022-09-15T22:20:33.288Z,89
2022-09-15T22:22:33.076Z,90
2022-09-15T22:24:33.176Z,90
2022-09-15T22:26:36.374Z,90
2022-09-15T22:28:37.263Z,89
2022-09-15T22:30:33.219Z,90
2022-09-15T22:32:32.871Z,90
2022-09-15T22:36:32.687Z,90
2022-09-15T22:38:33.310Z,90
2022-09-15T22:40:33.107Z,90
2022-09-15T22:42:33.183Z,90
2022-09-15T22:44:33.143Z,90
2022-09-15T22:46:33.067Z,90
2022-09-15T22:48:33.207Z,90
2022-09-15T22:50:29.803Z,90
2022-09-15T22:52:35.455Z,90
2022-09-15T22:54:33.194Z,90
2022-09-15T22:56:33.024Z,90
2022-09-15T22:58:31.046Z,90
2022-09-15T23:00:31.075Z,90
2022-09-15T23:02:34.507Z,90
2022-09-15T23:04:32.713Z,90
2022-09-15T23:06:36.387Z,90
2022-09-15T23:08:32.566Z,90
2022-09-15T23:10:33.161Z,90
2022-09-15T23:12:33.158Z,90
2022-09-15T23:14:30.462Z,90
2022-09-15T23:16:33.170Z,90
2022-09-15T23:18:33.092Z,90
2022-09-15T23:20:33.237Z,90
2022-09-15T23:22:30.239Z,90
2022-09-15T23:24:33.069Z,90
2022-09-15T23:26:35.003Z,90
2022-09-15T23:28:31.206Z,90
2022-09-15T23:30:33.162Z,90
2022-09-15T23:32:36.665Z,90
2022-09-15T23:34:33.129Z,90
2022-09-15T23:36:33.124Z,90
2022-09-15T23:38:34.996Z,90
2022-09-15T23:40:35.427Z,90
2022-09-15T23:42:33.851Z,90
2022-09-15T23:44:33.525Z,90
2022-09-15T23:46:36.027Z,90
2022-09-15T23:48:36.217Z,90
2022-09-15T23:50:31.554Z,90
2022-09-15T23:52:33.169Z,90
2022-09-15T23:54:31.626Z,90
2022-09-15T23:56:33.573Z,90
2022-09-15T23:58:31.691Z,90
